Etusivu
METAR-TAF:

METAR-TAF

Lentoasemat :

Scotts Seaplane Base

Crane Lake, Minnesota, Yhdysvallat

Leveyspiiri: 48-15-59N, Pituuspiiri: 092-29-01W, korkeus merenpinnasta: 341 m

Tämänhetkinen sää

Tämä raportti tehtiin 44 minuuttia sitten, kello 09.11 UTC
Tuuli 6 kn pohjoisen/luoteesta puuskistuen 14 kn:hen
Lämpötila 2°C
Kosteus 93%
Ilmanpaine 1014 hPa
Näkyvyys: 11.3 km
Hajonneita pilviä 1500 ft:n korkeudessa
Pilvistä 2000 ft:n korkeudessa
sadetta

METAR: KCDD 260911Z AUTO 34006G14KT 7SM RA BKN015 OVC020 02/01 A2993 RMK AO2

Aika: 04:55 (09:55 UTC)


TAF: puuttuu

Säähavainnot ja -ennusteet yli 4000 lentoasemalta (METAR- ja TAF-raportit).

Käytössä olevat sääasemat on merkitty karttaan keltaisilla ja punaisilla pisteillä.

Aseta hiiri pisteen päälle nähdäksesi sääaseman nimen.

Klikkaa sitten nähdäksesi säähavainnot ja -ennusteet.

Kartan vaihtaminen: klikkaa mustalla rastilla varustettuja vihreitä pisteitä, niin voit zoomata sisään; viivalla varustettua vihreää pistettä, niin voit zoomata ulos tai vihreitä nuolia, niin pääset viereisille kartoille.


METAR-TAF: